Airfield :
LOGIN :

Register | Disclaimer

   EN    FR    IT 

 










Legend :    VFR   Marginal VFR   IFR   Intensive IFR   Very Intensive IFR
Visi :
Ceiling :
>= 8 km
>= 3000ft
5 to 8 km
1000 to 3000 ft
1500m to 5 km
500 to 1000 ft
800 to 1500m
200 to 500 ft
< 800m
< 200 ft
Symbols :   Thunderstorms  Fog  Heavy snow  Heavy precipitations  Wind > 20 kt
SIGMETs :     Misc.  Thunderstorms  Icing  Turbulence  Mountain Waves  Volcanic Ashes







- Airport Elevation : 776 ft
- IATA code : RMS


ETAR - Ramstein Air Base

CURRENT METAR :
  • 190256Z 23009KT 9999 OVC009 05/05 A2997 RMK AO2A DZB0156E0157RAB0157E24RAB30E54 SLP160 P0001 60002 T00450045 55014 $

EXPIRED METARs :
  • 190230Z 23008KT 9999 -RA OVC009 05/04 A2997 RMK AO2A DZB0156E0157RAB0157E24RAB30 SLP160 $
  • 190224Z 23009KT 9999 BKN008 OVC014 04/04 A2998 RMK AO2A DZB0156E0157RAB0157E24 SLP163 $
  • 190217Z 23008KT 9999 -RA OVC009 04/04 A2998 RMK AO2A DZB0156E0157RAB0157 SLP163 $
  • 190157Z 24010KT 9999 -DZ OVC010 05/04 A2999 RMK AO2A DZB56 SLP167 $
  • 190128Z 23008G17KT 9999 -RA OVC011 05/05 A2999 RMK AO2A RAB08 SLP167 $
  • 190108Z 23010KT 9999 -RA OVC012 05/05 A2999 RMK AO2A RAB08 SLP167 $
  • 190056Z 23008G18KT 9999 OVC012 05/05 A2999 RMK AO2A SLP167 T00480047 $
  • 182356Z 24009KT 9999 OVC012 05/04 A3002 RMK AO2A SLP177 60001 T00450044 10048 20040 57026 $

TAF AMD TAF ETAR
Valid from the 19 at 02:00 until the 20 at 08:00 UTC


190249Z 1902/2008 23009KT 6000 -SHRA BKN009 610206 QNH2998INS
TEMPO 1902/1906 24012G20KT OVC010
BECMG 1905/1906 30010G15KT 9999 NSW BKN020 610206 QNH3001INS
BECMG 1908/1909 27009KT 9999 SCT030 BKN050 610502 QNH3010INS
BECMG 1916/1917 22009KT 9999 SCT015 BKN030 610305 QNH3017INS
BECMG 1922/1923 VRB06KT 8000 BR BKN010 OVC020 QNH3020INS TX06/1913Z TN00/2002Z
No reported NOTAMs for that airfield.



MET'MAP, your aeronautical weather chart ! - Copyright ORBIFLY December 2007 - Disclaimer

ORBIFLY MET'MAP TEAM :

Programming & Development : Alexandra Zaïnal
Concept & Development : Baudouin d'Aumeries
Co-Development & Prog : Marc-Olivier Méhu
Technical & hardware support : Manuel Goepfert

Contact : metmap@orbifly.com




SOURCES & CREDITS :

   NOAA